sensor_id;sensor_type;location;lat;lon;timestamp;temperature;humidity
30893;DHT22;17595;50.884;4.346;2023-03-01T00:00:39;4.70;99.90
30893;DHT22;17595;50.884;4.346;2023-03-01T00:03:05;4.70;99.90
30893;DHT22;17595;50.884;4.346;2023-03-01T00:05:31;4.70;99.90
30893;DHT22;17595;50.884;4.346;2023-03-01T00:07:57;4.70;99.90
30893;DHT22;17595;50.884;4.346;2023-03-01T00:10:23;4.70;99.90
30893;DHT22;17595;50.884;4.346;2023-03-01T00:12:48;4.70;99.90
30893;DHT22;17595;50.884;4.346;2023-03-01T00:15:14;4.70;99.90
30893;DHT22;17595;50.884;4.346;2023-03-01T00:17:40;4.70;99.90
30893;DHT22;17595;50.884;4.346;2023-03-01T00:20:06;4.70;99.90
30893;DHT22;17595;50.884;4.346;2023-03-01T00:22:36;4.70;99.90
30893;DHT22;17595;50.884;4.346;2023-03-01T00:25:02;4.60;99.90
30893;DHT22;17595;50.884;4.346;2023-03-01T00:27:28;4.60;99.90
30893;DHT22;17595;50.884;4.346;2023-03-01T00:29:53;4.60;99.90
30893;DHT22;17595;50.884;4.346;2023-03-01T00:32:19;4.50;99.90
30893;DHT22;17595;50.884;4.346;2023-03-01T00:34:44;4.50;99.90
30893;DHT22;17595;50.884;4.346;2023-03-01T00:37:21;4.50;99.90
30893;DHT22;17595;50.884;4.346;2023-03-01T00:39:47;4.50;99.90
30893;DHT22;17595;50.884;4.346;2023-03-01T00:42:13;4.50;99.90
30893;DHT22;17595;50.884;4.346;2023-03-01T00:44:38;4.50;99.90
30893;DHT22;17595;50.884;4.346;2023-03-01T00:47:04;4.50;99.90
30893;DHT22;17595;50.884;4.346;2023-03-01T00:49:30;4.40;99.90
30893;DHT22;17595;50.884;4.346;2023-03-01T00:51:55;4.40;99.90
30893;DHT22;17595;50.884;4.346;2023-03-01T00:54:21;4.40;99.90
30893;DHT22;17595;50.884;4.346;2023-03-01T00:56:47;4.40;99.90
30893;DHT22;17595;50.884;4.346;2023-03-01T00:59:12;4.40;99.90
30893;DHT22;17595;50.884;4.346;2023-03-01T01:01:38;4.50;99.90
30893;DHT22;17595;50.884;4.346;2023-03-01T01:04:07;4.40;99.90
30893;DHT22;17595;50.884;4.346;2023-03-01T01:06:38;4.40;99.90
30893;DHT22;17595;50.884;4.346;2023-03-01T01:09:06;4.30;99.90
30893;DHT22;17595;50.884;4.346;2023-03-01T01:11:33;4.30;99.90
30893;DHT22;17595;50.884;4.346;2023-03-01T01:14:00;4.30;99.90
30893;DHT22;17595;50.884;4.346;2023-03-01T01:16:27;4.30;99.90
30893;DHT22;17595;50.884;4.346;2023-03-01T01:18:53;4.30;99.90
30893;DHT22;17595;50.884;4.346;2023-03-01T01:21:21;4.20;99.90
30893;DHT22;17595;50.884;4.346;2023-03-01T01:23:48;4.30;99.90
30893;DHT22;17595;50.884;4.346;2023-03-01T01:26:24;4.20;99.90
30893;DHT22;17595;50.884;4.346;2023-03-01T01:28:50;4.20;99.90
30893;DHT22;17595;50.884;4.346;2023-03-01T01:31:17;4.20;99.90
30893;DHT22;17595;50.884;4.346;2023-03-01T01:33:43;4.20;99.90
30893;DHT22;17595;50.884;4.346;2023-03-01T01:36:09;4.20;99.90
30893;DHT22;17595;50.884;4.346;2023-03-01T01:38:36;4.20;99.90
30893;DHT22;17595;50.884;4.346;2023-03-01T01:41:02;4.20;99.90
30893;DHT22;17595;50.884;4.346;2023-03-01T01:43:32;4.20;99.90
30893;DHT22;17595;50.884;4.346;2023-03-01T01:46:03;4.20;99.90
30893;DHT22;17595;50.884;4.346;2023-03-01T01:48:50;4.10;99.90
30893;DHT22;17595;50.884;4.346;2023-03-01T01:51:25;4.20;99.90
30893;DHT22;17595;50.884;4.346;2023-03-01T01:53:59;4.20;99.90
30893;DHT22;17595;50.884;4.346;2023-03-01T01:56:26;4.10;99.90
30893;DHT22;17595;50.884;4.346;2023-03-01T01:58:53;4.10;99.90
30893;DHT22;17595;50.884;4.346;2023-03-01T02:01:19;4.20;99.90
30893;DHT22;17595;50.884;4.346;2023-03-01T02:03:46;4.10;99.90
30893;DHT22;17595;50.884;4.346;2023-03-01T02:06:19;4.10;99.90
30893;DHT22;17595;50.884;4.346;2023-03-01T02:08:48;4.10;99.90
30893;DHT22;17595;50.884;4.346;2023-03-01T02:11:15;4.10;99.90
30893;DHT22;17595;50.884;4.346;2023-03-01T02:13:41;4.10;99.90
30893;DHT22;17595;50.884;4.346;2023-03-01T02:16:12;4.10;99.90
30893;DHT22;17595;50.884;4.346;2023-03-01T02:18:40;4.10;99.90
30893;DHT22;17595;50.884;4.346;2023-03-01T02:24:05;4.10;99.90
30893;DHT22;17595;50.884;4.346;2023-03-01T02:26:42;4.10;99.90
30893;DHT22;17595;50.884;4.346;2023-03-01T02:29:10;4.10;99.90
30893;DHT22;17595;50.884;4.346;2023-03-01T02:31:36;4.10;99.90
30893;DHT22;17595;50.884;4.346;2023-03-01T02:34:11;4.10;99.90
30893;DHT22;17595;50.884;4.346;2023-03-01T02:37:04;4.00;99.90
30893;DHT22;17595;50.884;4.346;2023-03-01T02:39:39;4.00;99.90
30893;DHT22;17595;50.884;4.346;2023-03-01T02:42:11;4.00;99.90
30893;DHT22;17595;50.884;4.346;2023-03-01T02:44:37;4.00;99.90
30893;DHT22;17595;50.884;4.346;2023-03-01T02:47:03;4.00;99.90
30893;DHT22;17595;50.884;4.346;2023-03-01T02:49:35;3.90;99.90
30893;DHT22;17595;50.884;4.346;2023-03-01T02:52:11;4.00;99.90
30893;DHT22;17595;50.884;4.346;2023-03-01T02:55:13;3.90;99.90
30893;DHT22;17595;50.884;4.346;2023-03-01T02:57:42;3.90;99.90
30893;DHT22;17595;50.884;4.346;2023-03-01T03:00:34;3.90;99.90
30893;DHT22;17595;50.884;4.346;2023-03-01T03:03:01;3.90;99.90
30893;DHT22;17595;50.884;4.346;2023-03-01T03:05:29;3.90;99.90
30893;DHT22;17595;50.884;4.346;2023-03-01T03:07:55;3.90;99.90
30893;DHT22;17595;50.884;4.346;2023-03-01T03:10:24;3.90;99.90
30893;DHT22;17595;50.884;4.346;2023-03-01T03:12:52;3.80;99.90
30893;DHT22;17595;50.884;4.346;2023-03-01T03:15:20;3.80;99.90
30893;DHT22;17595;50.884;4.346;2023-03-01T03:17:46;3.80;99.90
30893;DHT22;17595;50.884;4.346;2023-03-01T03:20:15;3.70;99.90
30893;DHT22;17595;50.884;4.346;2023-03-01T03:22:45;3.70;99.90
30893;DHT22;17595;50.884;4.346;2023-03-01T03:25:12;3.70;99.90
30893;DHT22;17595;50.884;4.346;2023-03-01T03:27:38;3.70;99.90
30893;DHT22;17595;50.884;4.346;2023-03-01T03:30:05;3.60;99.90
30893;DHT22;17595;50.884;4.346;2023-03-01T03:32:36;3.70;99.90
30893;DHT22;17595;50.884;4.346;2023-03-01T03:35:03;3.70;99.90
30893;DHT22;17595;50.884;4.346;2023-03-01T03:37:38;3.70;99.90
30893;DHT22;17595;50.884;4.346;2023-03-01T03:40:22;3.70;99.90
30893;DHT22;17595;50.884;4.346;2023-03-01T03:42:48;3.70;99.90
30893;DHT22;17595;50.884;4.346;2023-03-01T03:45:15;3.70;99.90
30893;DHT22;17595;50.884;4.346;2023-03-01T03:47:41;3.60;99.90
30893;DHT22;17595;50.884;4.346;2023-03-01T03:50:09;3.60;99.90
30893;DHT22;17595;50.884;4.346;2023-03-01T03:52:35;3.60;99.90
30893;DHT22;17595;50.884;4.346;2023-03-01T03:55:01;3.60;99.90
30893;DHT22;17595;50.884;4.346;2023-03-01T03:57:26;3.60;99.90
30893;DHT22;17595;50.884;4.346;2023-03-01T03:59:52;3.60;99.90
30893;DHT22;17595;50.884;4.346;2023-03-01T04:02:17;3.60;99.90
30893;DHT22;17595;50.884;4.346;2023-03-01T04:04:48;3.70;99.90
30893;DHT22;17595;50.884;4.346;2023-03-01T04:07:17;3.60;99.90
30893;DHT22;17595;50.884;4.346;2023-03-01T04:09:43;3.70;99.90
30893;DHT22;17595;50.884;4.346;2023-03-01T04:12:09;3.70;99.90
30893;DHT22;17595;50.884;4.346;2023-03-01T04:14:35;3.70;99.90
30893;DHT22;17595;50.884;4.346;2023-03-01T04:17:01;3.70;99.90
30893;DHT22;17595;50.884;4.346;2023-03-01T04:19:26;3.70;99.90
30893;DHT22;17595;50.884;4.346;2023-03-01T04:21:53;3.60;99.90
30893;DHT22;17595;50.884;4.346;2023-03-01T04:24:18;3.60;99.90
30893;DHT22;17595;50.884;4.346;2023-03-01T04:26:44;3.60;99.90
30893;DHT22;17595;50.884;4.346;2023-03-01T04:29:10;3.60;99.90
30893;DHT22;17595;50.884;4.346;2023-03-01T04:31:36;3.70;99.90
30893;DHT22;17595;50.884;4.346;2023-03-01T04:34:01;3.70;99.90
30893;DHT22;17595;50.884;4.346;2023-03-01T04:36:29;3.70;99.90
30893;DHT22;17595;50.884;4.346;2023-03-01T04:38:55;3.70;99.90
30893;DHT22;17595;50.884;4.346;2023-03-01T04:41:23;3.70;99.90
30893;DHT22;17595;50.884;4.346;2023-03-01T04:43:49;3.70;99.90
30893;DHT22;17595;50.884;4.346;2023-03-01T04:46:17;3.70;99.90
30893;DHT22;17595;50.884;4.346;2023-03-01T04:48:44;3.70;99.90
30893;DHT22;17595;50.884;4.346;2023-03-01T04:51:11;3.70;99.90
30893;DHT22;17595;50.884;4.346;2023-03-01T04:53:40;3.70;99.90
30893;DHT22;17595;50.884;4.346;2023-03-01T04:56:06;3.70;99.90
30893;DHT22;17595;50.884;4.346;2023-03-01T04:58:32;3.70;99.90
30893;DHT22;17595;50.884;4.346;2023-03-01T05:00:58;3.60;99.90
30893;DHT22;17595;50.884;4.346;2023-03-01T05:03:23;3.60;99.90
30893;DHT22;17595;50.884;4.346;2023-03-01T05:05:51;3.50;99.90
30893;DHT22;17595;50.884;4.346;2023-03-01T05:08:16;3.50;99.90
30893;DHT22;17595;50.884;4.346;2023-03-01T05:10:50;3.50;99.90
30893;DHT22;17595;50.884;4.346;2023-03-01T05:13:17;3.50;99.90
30893;DHT22;17595;50.884;4.346;2023-03-01T05:16:00;3.50;99.90
30893;DHT22;17595;50.884;4.346;2023-03-01T05:18:27;3.50;99.90
30893;DHT22;17595;50.884;4.346;2023-03-01T05:20:54;3.50;99.90
30893;DHT22;17595;50.884;4.346;2023-03-01T05:23:22;3.60;99.90
30893;DHT22;17595;50.884;4.346;2023-03-01T05:25:48;3.60;99.90
30893;DHT22;17595;50.884;4.346;2023-03-01T05:28:14;3.60;99.90
30893;DHT22;17595;50.884;4.346;2023-03-01T05:30:40;3.50;99.90
30893;DHT22;17595;50.884;4.346;2023-03-01T05:33:07;3.60;99.90
30893;DHT22;17595;50.884;4.346;2023-03-01T05:35:39;3.50;99.90
30893;DHT22;17595;50.884;4.346;2023-03-01T05:38:05;3.50;99.90
30893;DHT22;17595;50.884;4.346;2023-03-01T05:40:33;3.40;99.90
30893;DHT22;17595;50.884;4.346;2023-03-01T05:42:59;3.40;99.90
30893;DHT22;17595;50.884;4.346;2023-03-01T05:45:26;3.40;99.90
30893;DHT22;17595;50.884;4.346;2023-03-01T05:47:52;3.40;99.90
30893;DHT22;17595;50.884;4.346;2023-03-01T05:50:25;3.40;99.90
30893;DHT22;17595;50.884;4.346;2023-03-01T05:52:56;3.50;99.90
30893;DHT22;17595;50.884;4.346;2023-03-01T05:55:22;3.50;99.90
30893;DHT22;17595;50.884;4.346;2023-03-01T05:57:48;3.40;99.90
30893;DHT22;17595;50.884;4.346;2023-03-01T06:00:17;3.50;99.90
30893;DHT22;17595;50.884;4.346;2023-03-01T06:02:43;3.40;99.90
30893;DHT22;17595;50.884;4.346;2023-03-01T06:05:10;3.40;99.90
30893;DHT22;17595;50.884;4.346;2023-03-01T06:07:36;3.40;99.90
30893;DHT22;17595;50.884;4.346;2023-03-01T06:10:03;3.40;99.90
30893;DHT22;17595;50.884;4.346;2023-03-01T06:12:33;3.40;99.90
30893;DHT22;17595;50.884;4.346;2023-03-01T06:15:00;3.50;99.90
30893;DHT22;17595;50.884;4.346;2023-03-01T06:17:26;3.40;99.90
30893;DHT22;17595;50.884;4.346;2023-03-01T06:19:53;3.30;99.90
30893;DHT22;17595;50.884;4.346;2023-03-01T06:22:19;3.30;99.90
30893;DHT22;17595;50.884;4.346;2023-03-01T06:24:45;3.30;99.90
30893;DHT22;17595;50.884;4.346;2023-03-01T06:27:10;3.40;99.90
30893;DHT22;17595;50.884;4.346;2023-03-01T06:29:36;3.40;99.90
30893;DHT22;17595;50.884;4.346;2023-03-01T06:32:02;3.30;99.90
30893;DHT22;17595;50.884;4.346;2023-03-01T06:34:28;3.30;99.90
30893;DHT22;17595;50.884;4.346;2023-03-01T06:36:54;3.30;99.90
30893;DHT22;17595;50.884;4.346;2023-03-01T06:39:20;3.30;99.90
30893;DHT22;17595;50.884;4.346;2023-03-01T06:41:45;3.30;99.90
30893;DHT22;17595;50.884;4.346;2023-03-01T06:44:11;3.40;99.90
30893;DHT22;17595;50.884;4.346;2023-03-01T06:46:38;3.40;99.90
30893;DHT22;17595;50.884;4.346;2023-03-01T06:49:03;3.30;99.90
30893;DHT22;17595;50.884;4.346;2023-03-01T06:51:32;3.30;99.90
30893;DHT22;17595;50.884;4.346;2023-03-01T06:53:58;3.30;99.90
30893;DHT22;17595;50.884;4.346;2023-03-01T06:56:24;3.40;99.90
30893;DHT22;17595;50.884;4.346;2023-03-01T06:58:49;3.40;99.90
30893;DHT22;17595;50.884;4.346;2023-03-01T07:01:15;3.30;99.90
30893;DHT22;17595;50.884;4.346;2023-03-01T07:03:40;3.40;99.90
30893;DHT22;17595;50.884;4.346;2023-03-01T07:06:09;3.40;99.90
30893;DHT22;17595;50.884;4.346;2023-03-01T07:08:35;3.50;99.90
30893;DHT22;17595;50.884;4.346;2023-03-01T07:11:00;3.50;99.90
30893;DHT22;17595;50.884;4.346;2023-03-01T07:13:28;3.50;99.90
30893;DHT22;17595;50.884;4.346;2023-03-01T07:15:53;3.40;99.90
30893;DHT22;17595;50.884;4.346;2023-03-01T07:18:19;3.40;99.90
30893;DHT22;17595;50.884;4.346;2023-03-01T07:20:44;3.40;99.90
30893;DHT22;17595;50.884;4.346;2023-03-01T07:23:10;3.40;99.90
30893;DHT22;17595;50.884;4.346;2023-03-01T07:25:36;3.30;99.90
30893;DHT22;17595;50.884;4.346;2023-03-01T07:28:01;3.40;99.90
30893;DHT22;17595;50.884;4.346;2023-03-01T07:30:27;3.40;99.90
30893;DHT22;17595;50.884;4.346;2023-03-01T07:32:54;3.50;99.90
30893;DHT22;17595;50.884;4.346;2023-03-01T07:35:21;3.50;99.90
30893;DHT22;17595;50.884;4.346;2023-03-01T07:37:46;3.60;99.90
30893;DHT22;17595;50.884;4.346;2023-03-01T07:40:12;3.60;99.90
30893;DHT22;17595;50.884;4.346;2023-03-01T07:42:38;3.60;99.90
30893;DHT22;17595;50.884;4.346;2023-03-01T07:45:04;3.60;99.90
30893;DHT22;17595;50.884;4.346;2023-03-01T07:47:31;3.60;99.90
30893;DHT22;17595;50.884;4.346;2023-03-01T07:49:57;3.60;99.90
30893;DHT22;17595;50.884;4.346;2023-03-01T07:52:22;3.60;99.90
30893;DHT22;17595;50.884;4.346;2023-03-01T07:54:48;3.60;99.90
30893;DHT22;17595;50.884;4.346;2023-03-01T07:57:13;3.60;99.90
30893;DHT22;17595;50.884;4.346;2023-03-01T07:59:39;3.70;99.90
30893;DHT22;17595;50.884;4.346;2023-03-01T08:02:05;3.80;99.90
30893;DHT22;17595;50.884;4.346;2023-03-01T08:04:32;3.70;99.90
30893;DHT22;17595;50.884;4.346;2023-03-01T08:06:58;3.80;99.90
30893;DHT22;17595;50.884;4.346;2023-03-01T08:09:24;3.90;99.90
30893;DHT22;17595;50.884;4.346;2023-03-01T08:11:50;4.00;99.90
30893;DHT22;17595;50.884;4.346;2023-03-01T08:14:15;4.00;99.90
30893;DHT22;17595;50.884;4.346;2023-03-01T08:16:41;4.10;99.90
30893;DHT22;17595;50.884;4.346;2023-03-01T08:19:08;4.10;99.90
30893;DHT22;17595;50.884;4.346;2023-03-01T08:21:34;4.20;99.90
30893;DHT22;17595;50.884;4.346;2023-03-01T08:24:01;4.20;99.90
30893;DHT22;17595;50.884;4.346;2023-03-01T08:26:27;4.30;99.90
30893;DHT22;17595;50.884;4.346;2023-03-01T08:28:53;4.40;99.90
30893;DHT22;17595;50.884;4.346;2023-03-01T08:31:19;4.40;99.90
30893;DHT22;17595;50.884;4.346;2023-03-01T08:33:47;4.50;99.90
30893;DHT22;17595;50.884;4.346;2023-03-01T08:36:39;4.50;99.90
30893;DHT22;17595;50.884;4.346;2023-03-01T08:39:06;4.40;99.90
30893;DHT22;17595;50.884;4.346;2023-03-01T08:41:33;4.40;99.90
30893;DHT22;17595;50.884;4.346;2023-03-01T08:43:59;4.50;99.90
30893;DHT22;17595;50.884;4.346;2023-03-01T08:46:29;4.50;99.90
30893;DHT22;17595;50.884;4.346;2023-03-01T08:48:55;4.60;99.90
30893;DHT22;17595;50.884;4.346;2023-03-01T08:51:22;4.60;99.90
30893;DHT22;17595;50.884;4.346;2023-03-01T08:53:48;4.60;99.90
30893;DHT22;17595;50.884;4.346;2023-03-01T08:56:15;4.50;99.90
30893;DHT22;17595;50.884;4.346;2023-03-01T08:58:44;4.60;99.90
30893;DHT22;17595;50.884;4.346;2023-03-01T09:01:12;4.60;99.90
30893;DHT22;17595;50.884;4.346;2023-03-01T09:03:38;4.70;99.90
30893;DHT22;17595;50.884;4.346;2023-03-01T09:06:05;4.90;99.90
30893;DHT22;17595;50.884;4.346;2023-03-01T09:08:34;4.90;99.90
30893;DHT22;17595;50.884;4.346;2023-03-01T09:11:02;5.00;99.90
30893;DHT22;17595;50.884;4.346;2023-03-01T09:13:28;5.00;99.90
30893;DHT22;17595;50.884;4.346;2023-03-01T09:15:57;5.00;99.90
30893;DHT22;17595;50.884;4.346;2023-03-01T09:18:22;4.90;99.90
30893;DHT22;17595;50.884;4.346;2023-03-01T09:20:48;5.00;99.90
30893;DHT22;17595;50.884;4.346;2023-03-01T09:23:13;5.00;99.90
30893;DHT22;17595;50.884;4.346;2023-03-01T09:25:39;5.00;99.90
30893;DHT22;17595;50.884;4.346;2023-03-01T09:28:05;5.10;99.90
30893;DHT22;17595;50.884;4.346;2023-03-01T09:30:30;5.20;99.90
30893;DHT22;17595;50.884;4.346;2023-03-01T09:32:59;5.20;99.90
30893;DHT22;17595;50.884;4.346;2023-03-01T09:35:24;5.20;99.90
30893;DHT22;17595;50.884;4.346;2023-03-01T09:37:50;5.20;99.90
30893;DHT22;17595;50.884;4.346;2023-03-01T09:40:19;5.20;99.90
30893;DHT22;17595;50.884;4.346;2023-03-01T09:43:11;5.40;99.90
30893;DHT22;17595;50.884;4.346;2023-03-01T09:45:41;5.50;99.90
30893;DHT22;17595;50.884;4.346;2023-03-01T09:48:20;5.50;99.90
30893;DHT22;17595;50.884;4.346;2023-03-01T09:50:47;5.60;99.90
30893;DHT22;17595;50.884;4.346;2023-03-01T09:53:17;5.70;99.90
30893;DHT22;17595;50.884;4.346;2023-03-01T09:56:02;5.70;99.90
30893;DHT22;17595;50.884;4.346;2023-03-01T10:01:41;5.60;99.90
30893;DHT22;17595;50.884;4.346;2023-03-01T10:09:38;5.60;99.90
30893;DHT22;17595;50.884;4.346;2023-03-01T10:12:07;5.70;99.90
30893;DHT22;17595;50.884;4.346;2023-03-01T10:15:10;5.60;99.90
30893;DHT22;17595;50.884;4.346;2023-03-01T10:17:48;5.60;99.90
30893;DHT22;17595;50.884;4.346;2023-03-01T10:22:41;5.50;99.90
30893;DHT22;17595;50.884;4.346;2023-03-01T10:25:13;5.70;99.90
30893;DHT22;17595;50.884;4.346;2023-03-01T10:27:59;5.90;99.90
30893;DHT22;17595;50.884;4.346;2023-03-01T10:30:38;6.00;99.90
30893;DHT22;17595;50.884;4.346;2023-03-01T10:33:26;5.90;99.90
30893;DHT22;17595;50.884;4.346;2023-03-01T10:35:52;6.00;99.90
30893;DHT22;17595;50.884;4.346;2023-03-01T10:38:19;6.10;99.90
30893;DHT22;17595;50.884;4.346;2023-03-01T10:41:00;6.20;99.90
30893;DHT22;17595;50.884;4.346;2023-03-01T10:46:29;6.20;99.90
30893;DHT22;17595;50.884;4.346;2023-03-01T10:51:41;6.40;99.90
30893;DHT22;17595;50.884;4.346;2023-03-01T10:54:27;6.40;99.90
30893;DHT22;17595;50.884;4.346;2023-03-01T10:56:55;6.30;99.90
30893;DHT22;17595;50.884;4.346;2023-03-01T11:04:34;6.30;99.90
30893;DHT22;17595;50.884;4.346;2023-03-01T11:07:01;6.20;99.90
30893;DHT22;17595;50.884;4.346;2023-03-01T11:09:32;6.40;99.90
30893;DHT22;17595;50.884;4.346;2023-03-01T11:12:04;6.50;99.90
30893;DHT22;17595;50.884;4.346;2023-03-01T11:14:36;6.60;99.90
30893;DHT22;17595;50.884;4.346;2023-03-01T11:17:29;6.60;99.90
30893;DHT22;17595;50.884;4.346;2023-03-01T11:25:58;6.50;99.90
30893;DHT22;17595;50.884;4.346;2023-03-01T11:28:26;6.50;99.90
30893;DHT22;17595;50.884;4.346;2023-03-01T11:31:00;6.60;99.90
30893;DHT22;17595;50.884;4.346;2023-03-01T11:36:35;6.70;99.90
30893;DHT22;17595;50.884;4.346;2023-03-01T11:41:42;6.90;99.90
30893;DHT22;17595;50.884;4.346;2023-03-01T11:47:09;6.90;99.90
30893;DHT22;17595;50.884;4.346;2023-03-01T11:52:36;7.00;99.90
30893;DHT22;17595;50.884;4.346;2023-03-01T12:09:06;7.40;99.90
30893;DHT22;17595;50.884;4.346;2023-03-01T12:25:05;7.50;99.90
30893;DHT22;17595;50.884;4.346;2023-03-01T12:27:47;7.50;99.90
30893;DHT22;17595;50.884;4.346;2023-03-01T12:46:51;7.50;99.90
30893;DHT22;17595;50.884;4.346;2023-03-01T12:49:28;7.60;99.90
30893;DHT22;17595;50.884;4.346;2023-03-01T12:54:57;7.70;99.90
30893;DHT22;17595;50.884;4.346;2023-03-01T12:57:31;7.80;99.90
30893;DHT22;17595;50.884;4.346;2023-03-01T13:02:42;7.70;99.90
30893;DHT22;17595;50.884;4.346;2023-03-01T13:08:06;7.80;99.90
30893;DHT22;17595;50.884;4.346;2023-03-01T13:10:43;7.70;99.90
30893;DHT22;17595;50.884;4.346;2023-03-01T13:13:23;7.70;99.90
30893;DHT22;17595;50.884;4.346;2023-03-01T13:15:50;7.70;99.90
30893;DHT22;17595;50.884;4.346;2023-03-01T13:23:25;8.00;99.90
30893;DHT22;17595;50.884;4.346;2023-03-01T13:31:07;7.90;99.90
30893;DHT22;17595;50.884;4.346;2023-03-01T13:33:33;8.00;99.90
30893;DHT22;17595;50.884;4.346;2023-03-01T13:36:07;7.90;99.90
30893;DHT22;17595;50.884;4.346;2023-03-01T13:38:47;7.90;99.90
30893;DHT22;17595;50.884;4.346;2023-03-01T13:41:24;8.00;99.90
30893;DHT22;17595;50.884;4.346;2023-03-01T13:46:44;7.90;99.90
30893;DHT22;17595;50.884;4.346;2023-03-01T13:49:15;7.90;99.90
30893;DHT22;17595;50.884;4.346;2023-03-01T13:51:41;7.90;99.90
30893;DHT22;17595;50.884;4.346;2023-03-01T13:54:12;7.80;99.90
30893;DHT22;17595;50.884;4.346;2023-03-01T13:56:39;7.90;99.90
30893;DHT22;17595;50.884;4.346;2023-03-01T13:59:25;7.90;99.90
30893;DHT22;17595;50.884;4.346;2023-03-01T14:02:00;8.00;99.90
30893;DHT22;17595;50.884;4.346;2023-03-01T14:04:32;8.10;99.90
30893;DHT22;17595;50.884;4.346;2023-03-01T14:07:16;8.10;99.90
30893;DHT22;17595;50.884;4.346;2023-03-01T14:09:44;8.10;99.90
30893;DHT22;17595;50.884;4.346;2023-03-01T14:15:27;7.80;99.90
30893;DHT22;17595;50.884;4.346;2023-03-01T14:20:45;7.90;99.90
30893;DHT22;17595;50.884;4.346;2023-03-01T14:23:20;8.00;99.90
30893;DHT22;17595;50.884;4.346;2023-03-01T14:25:57;8.20;99.90
30893;DHT22;17595;50.884;4.346;2023-03-01T14:28:27;8.40;99.90
30893;DHT22;17595;50.884;4.346;2023-03-01T14:30:55;8.40;99.90
30893;DHT22;17595;50.884;4.346;2023-03-01T14:33:30;8.10;99.90
30893;DHT22;17595;50.884;4.346;2023-03-01T14:36:12;8.20;99.90
30893;DHT22;17595;50.884;4.346;2023-03-01T14:38:43;8.30;99.90
30893;DHT22;17595;50.884;4.346;2023-03-01T14:41:23;8.40;99.90
30893;DHT22;17595;50.884;4.346;2023-03-01T14:48:54;8.50;99.90
30893;DHT22;17595;50.884;4.346;2023-03-01T14:51:20;8.50;99.90
30893;DHT22;17595;50.884;4.346;2023-03-01T14:53:46;8.50;99.90
30893;DHT22;17595;50.884;4.346;2023-03-01T14:56:14;8.60;99.90
30893;DHT22;17595;50.884;4.346;2023-03-01T14:58:44;8.50;99.90
30893;DHT22;17595;50.884;4.346;2023-03-01T15:01:14;8.50;99.90
30893;DHT22;17595;50.884;4.346;2023-03-01T15:03:48;8.60;99.90
30893;DHT22;17595;50.884;4.346;2023-03-01T15:06:19;8.30;99.90
30893;DHT22;17595;50.884;4.346;2023-03-01T15:08:48;8.50;99.90
30893;DHT22;17595;50.884;4.346;2023-03-01T15:11:23;8.60;99.90
30893;DHT22;17595;50.884;4.346;2023-03-01T15:13:50;8.50;99.90
30893;DHT22;17595;50.884;4.346;2023-03-01T15:16:33;8.40;99.90
30893;DHT22;17595;50.884;4.346;2023-03-01T15:19:02;8.20;99.90
30893;DHT22;17595;50.884;4.346;2023-03-01T15:21:38;8.30;99.90
30893;DHT22;17595;50.884;4.346;2023-03-01T15:24:17;8.30;99.90
30893;DHT22;17595;50.884;4.346;2023-03-01T15:26:51;8.40;99.90
30893;DHT22;17595;50.884;4.346;2023-03-01T15:29:30;8.40;99.90
30893;DHT22;17595;50.884;4.346;2023-03-01T15:32:04;8.40;99.90
30893;DHT22;17595;50.884;4.346;2023-03-01T15:34:36;8.50;99.90
30893;DHT22;17595;50.884;4.346;2023-03-01T15:37:04;8.40;99.90
30893;DHT22;17595;50.884;4.346;2023-03-01T15:42:08;8.40;99.90
30893;DHT22;17595;50.884;4.346;2023-03-01T15:44:41;8.40;99.90
30893;DHT22;17595;50.884;4.346;2023-03-01T15:47:25;8.40;99.90
30893;DHT22;17595;50.884;4.346;2023-03-01T15:49:53;8.40;99.90
30893;DHT22;17595;50.884;4.346;2023-03-01T15:52:33;8.40;99.90
30893;DHT22;17595;50.884;4.346;2023-03-01T15:55:04;8.50;99.90
30893;DHT22;17595;50.884;4.346;2023-03-01T15:57:31;8.60;99.90
30893;DHT22;17595;50.884;4.346;2023-03-01T15:59:56;8.60;99.90
30893;DHT22;17595;50.884;4.346;2023-03-01T16:02:23;8.60;99.90
30893;DHT22;17595;50.884;4.346;2023-03-01T16:04:49;8.50;99.90
30893;DHT22;17595;50.884;4.346;2023-03-01T16:07:16;8.60;99.90
30893;DHT22;17595;50.884;4.346;2023-03-01T16:09:41;8.60;99.90
30893;DHT22;17595;50.884;4.346;2023-03-01T16:12:18;8.70;99.90
30893;DHT22;17595;50.884;4.346;2023-03-01T16:14:45;8.50;99.90
30893;DHT22;17595;50.884;4.346;2023-03-01T16:17:11;8.50;99.90
30893;DHT22;17595;50.884;4.346;2023-03-01T16:19:39;8.60;99.90
30893;DHT22;17595;50.884;4.346;2023-03-01T16:22:06;8.50;99.90
30893;DHT22;17595;50.884;4.346;2023-03-01T16:24:33;8.50;99.90
30893;DHT22;17595;50.884;4.346;2023-03-01T16:27:01;8.50;99.90
30893;DHT22;17595;50.884;4.346;2023-03-01T16:29:27;8.50;99.90
30893;DHT22;17595;50.884;4.346;2023-03-01T16:31:54;8.60;99.90
30893;DHT22;17595;50.884;4.346;2023-03-01T16:34:20;8.60;99.90
30893;DHT22;17595;50.884;4.346;2023-03-01T16:36:49;8.60;99.90
30893;DHT22;17595;50.884;4.346;2023-03-01T16:39:15;8.60;99.90
30893;DHT22;17595;50.884;4.346;2023-03-01T16:41:41;8.60;99.90
30893;DHT22;17595;50.884;4.346;2023-03-01T16:44:07;8.60;99.90
30893;DHT22;17595;50.884;4.346;2023-03-01T16:46:32;8.60;99.90
30893;DHT22;17595;50.884;4.346;2023-03-01T16:48:58;8.40;99.90
30893;DHT22;17595;50.884;4.346;2023-03-01T16:51:24;8.40;99.90
30893;DHT22;17595;50.884;4.346;2023-03-01T16:53:50;8.30;99.90
30893;DHT22;17595;50.884;4.346;2023-03-01T16:56:16;8.30;99.90
30893;DHT22;17595;50.884;4.346;2023-03-01T16:58:42;8.40;99.90
30893;DHT22;17595;50.884;4.346;2023-03-01T17:01:10;8.20;99.90
30893;DHT22;17595;50.884;4.346;2023-03-01T17:03:36;8.10;99.90
30893;DHT22;17595;50.884;4.346;2023-03-01T17:06:05;8.10;99.90
30893;DHT22;17595;50.884;4.346;2023-03-01T17:08:32;8.00;99.90
30893;DHT22;17595;50.884;4.346;2023-03-01T17:11:08;8.10;99.90
30893;DHT22;17595;50.884;4.346;2023-03-01T17:13:36;8.10;99.90
30893;DHT22;17595;50.884;4.346;2023-03-01T17:16:06;8.00;99.90
30893;DHT22;17595;50.884;4.346;2023-03-01T17:18:31;7.90;99.90
30893;DHT22;17595;50.884;4.346;2023-03-01T17:20:58;7.90;99.90
30893;DHT22;17595;50.884;4.346;2023-03-01T17:23:24;7.90;99.90
30893;DHT22;17595;50.884;4.346;2023-03-01T17:25:50;7.80;99.90
30893;DHT22;17595;50.884;4.346;2023-03-01T17:28:15;7.80;99.90
30893;DHT22;17595;50.884;4.346;2023-03-01T17:30:43;7.70;99.90
30893;DHT22;17595;50.884;4.346;2023-03-01T17:33:10;7.70;99.90
30893;DHT22;17595;50.884;4.346;2023-03-01T17:35:36;7.80;99.90
30893;DHT22;17595;50.884;4.346;2023-03-01T17:38:03;7.80;99.90
30893;DHT22;17595;50.884;4.346;2023-03-01T17:40:30;7.80;99.90
30893;DHT22;17595;50.884;4.346;2023-03-01T17:42:57;7.60;99.90
30893;DHT22;17595;50.884;4.346;2023-03-01T17:45:23;7.70;99.90
30893;DHT22;17595;50.884;4.346;2023-03-01T17:47:48;7.70;99.90
30893;DHT22;17595;50.884;4.346;2023-03-01T17:50:14;7.70;99.90
30893;DHT22;17595;50.884;4.346;2023-03-01T17:52:40;7.70;99.90
30893;DHT22;17595;50.884;4.346;2023-03-01T17:55:07;7.80;99.90
30893;DHT22;17595;50.884;4.346;2023-03-01T17:57:33;7.80;99.90